This is the latest recevied weather packets stored in our database for station/object W4SNA-3. If no packets are shown the sender has not sent any weather packets the latest 10 day(s).
| Time | Temp. | Humidity | Pressure | Rain* | Wind** | Luminosity | Snow |
|---|---|---|---|---|---|---|---|
| 1777908413 | 15° C | 58% | 1014.9 hPa | 0 mm | - | - | - |
| 1777908117 | 15° C | 57% | 1014.9 hPa | 0 mm | - | - | - |
| 1777907813 | 15° C | 58% | 1014.8 hPa | 0 mm | - | - | - |
| 1777907360 | 16.11° C | 53% | 1014.7 hPa | 0 mm | - | - | - |
| 1777906978 | 16.67° C | 50% | 1014.9 hPa | 0 mm | - | - | - |
| 1777906679 | 17.22° C | 47% | 1015 hPa | 0 mm | - | - | - |
| 1777906382 | 17.78° C | 45% | 1015 hPa | 0 mm | - | - | - |
| 1777906078 | 18.33° C | 44% | 1015.1 hPa | 0 mm | - | - | - |
| 1777905778 | 18.33° C | 46% | 1015 hPa | 0 mm | - | - | - |
| 1777905478 | 17.78° C | 47% | 1015.2 hPa | 0 mm | - | - | - |
| 1777905180 | 17.22° C | 50% | 1015.2 hPa | 0 mm | - | - | - |
| 1777904880 | 17.22° C | 48% | 1015.2 hPa | 0 mm | - | - | - |
| 1777904579 | 17.22° C | 46% | 1015.2 hPa | 0 mm | - | - | - |
| 1777904278 | 17.78° C | 47% | 1015.6 hPa | 0 mm | - | - | - |
| 1777903979 | 17.22° C | 47% | 1015.5 hPa | 0 mm | - | - | - |
| 1777903678 | 16.67° C | 47% | 1015.5 hPa | 0 mm | - | - | - |
| 1777903210 | 16.67° C | 46% | 1015.5 hPa | 0 mm | - | - | - |
| 1777902910 | 16.67° C | 48% | 1015.4 hPa | 0 mm | - | - | - |
| 1777902610 | 16.11° C | 48% | 1015.4 hPa | 0 mm | - | - | - |
| 1777902310 | 16.11° C | 48% | 1015.4 hPa | 0 mm | - | - | - |
| 1777902010 | 15.56° C | 50% | 1015.3 hPa | 0 mm | - | - | - |
| 1777901710 | 15.56° C | 51% | 1015.4 hPa | 0 mm | - | - | - |
| 1777901410 | 15.56° C | 50% | 1015.4 hPa | 0 mm | - | - | - |
| 1777901110 | 15° C | 50% | 1015.5 hPa | 0 mm | - | - | - |
| 1777900810 | 14.44° C | 51% | 1015.6 hPa | 0 mm | - | - | - |
* Rain latest hour (hover to see other rain measurements)
** Current wind speed in m/s (hover to see current wind gust speed)